sensor_id;sensor_type;location;lat;lon;timestamp;P1;durP1;ratioP1;P2;durP2;ratioP2
15843;SDS011;50807;52.436;13.346;2023-03-11T00:00:29;8.10;;;7.40;;
15843;SDS011;50807;52.436;13.346;2023-03-11T00:01:03;7.32;;;6.72;;
15843;SDS011;50807;52.436;13.346;2023-03-11T00:01:33;8.30;;;7.60;;
15843;SDS011;50807;52.436;13.346;2023-03-11T00:02:07;8.15;;;7.45;;
15843;SDS011;50807;52.436;13.346;2023-03-11T00:02:38;8.07;;;7.40;;
15843;SDS011;50807;52.436;13.346;2023-03-11T00:03:11;7.47;;;6.88;;
15843;SDS011;50807;52.436;13.346;2023-03-11T00:03:45;7.80;;;7.20;;
15843;SDS011;50807;52.436;13.346;2023-03-11T00:04:18;8.68;;;7.97;;
15843;SDS011;50807;52.436;13.346;2023-03-11T00:04:48;8.43;;;7.73;;
15843;SDS011;50807;52.436;13.346;2023-03-11T00:05:20;6.63;;;6.13;;
15843;SDS011;50807;52.436;13.346;2023-03-11T00:05:54;7.40;;;6.80;;
15843;SDS011;50807;52.436;13.346;2023-03-11T00:06:29;8.00;;;7.35;;
15843;SDS011;50807;52.436;13.346;2023-03-11T00:07:00;7.45;;;6.85;;
15843;SDS011;50807;52.436;13.346;2023-03-11T00:07:34;6.93;;;6.43;;
15843;SDS011;50807;52.436;13.346;2023-03-11T00:08:07;7.40;;;6.80;;
15843;SDS011;50807;52.436;13.346;2023-03-11T00:08:42;7.63;;;6.93;;
15843;SDS011;50807;52.436;13.346;2023-03-11T00:09:13;7.87;;;7.17;;
15843;SDS011;50807;52.436;13.346;2023-03-11T00:09:45;7.50;;;6.90;;
15843;SDS011;50807;52.436;13.346;2023-03-11T00:10:16;7.70;;;7.10;;
15843;SDS011;50807;52.436;13.346;2023-03-11T00:10:50;7.10;;;6.57;;
15843;SDS011;50807;52.436;13.346;2023-03-11T00:11:25;7.10;;;6.50;;
15843;SDS011;50807;52.436;13.346;2023-03-11T00:11:56;6.68;;;6.15;;
15843;SDS011;50807;52.436;13.346;2023-03-11T00:12:27;7.03;;;6.53;;
15843;SDS011;50807;52.436;13.346;2023-03-11T00:12:58;6.97;;;6.38;;
15843;SDS011;50807;52.436;13.346;2023-03-11T00:13:30;6.65;;;6.05;;
15843;SDS011;50807;52.436;13.346;2023-03-11T00:14:02;6.72;;;6.20;;
15843;SDS011;50807;52.436;13.346;2023-03-11T00:14:32;6.77;;;6.23;;
15843;SDS011;50807;52.436;13.346;2023-03-11T00:15:04;6.50;;;6.00;;
15843;SDS011;50807;52.436;13.346;2023-03-11T00:15:38;6.45;;;5.95;;
15843;SDS011;50807;52.436;13.346;2023-03-11T00:16:10;6.68;;;6.18;;
15843;SDS011;50807;52.436;13.346;2023-03-11T00:16:41;6.20;;;5.70;;
15843;SDS011;50807;52.436;13.346;2023-03-11T00:17:13;6.68;;;6.18;;
15843;SDS011;50807;52.436;13.346;2023-03-11T00:17:44;6.57;;;6.07;;
15843;SDS011;50807;52.436;13.346;2023-03-11T00:18:17;5.78;;;5.35;;
15843;SDS011;50807;52.436;13.346;2023-03-11T00:18:49;5.75;;;5.35;;
15843;SDS011;50807;52.436;13.346;2023-03-11T00:19:21;6.53;;;5.93;;
15843;SDS011;50807;52.436;13.346;2023-03-11T00:19:52;6.40;;;5.80;;
15843;SDS011;50807;52.436;13.346;2023-03-11T00:20:24;6.30;;;5.80;;
15843;SDS011;50807;52.436;13.346;2023-03-11T00:20:59;5.47;;;5.07;;
15843;SDS011;50807;52.436;13.346;2023-03-11T00:21:30;6.20;;;5.70;;
15843;SDS011;50807;52.436;13.346;2023-03-11T00:22:02;6.30;;;5.80;;
15843;SDS011;50807;52.436;13.346;2023-03-11T00:22:33;6.10;;;5.60;;
15843;SDS011;50807;52.436;13.346;2023-03-11T00:23:05;5.80;;;5.30;;
15843;SDS011;50807;52.436;13.346;2023-03-11T00:23:38;6.18;;;5.68;;
15843;SDS011;50807;52.436;13.346;2023-03-11T00:24:09;6.17;;;5.70;;
15843;SDS011;50807;52.436;13.346;2023-03-11T00:24:40;5.80;;;5.30;;
15843;SDS011;50807;52.436;13.346;2023-03-11T00:25:12;5.68;;;5.28;;
15843;SDS011;50807;52.436;13.346;2023-03-11T00:25:44;6.13;;;5.60;;
15843;SDS011;50807;52.436;13.346;2023-03-11T00:26:16;5.78;;;5.35;;
15843;SDS011;50807;52.436;13.346;2023-03-11T00:26:48;5.93;;;5.43;;
15843;SDS011;50807;52.436;13.346;2023-03-11T00:27:19;5.67;;;5.27;;
15843;SDS011;50807;52.436;13.346;2023-03-11T00:27:49;5.73;;;5.23;;
15843;SDS011;50807;52.436;13.346;2023-03-11T00:28:21;5.15;;;4.75;;
15843;SDS011;50807;52.436;13.346;2023-03-11T00:28:54;5.53;;;5.13;;
15843;SDS011;50807;52.436;13.346;2023-03-11T00:29:25;5.40;;;5.00;;
15843;SDS011;50807;52.436;13.346;2023-03-11T00:29:57;5.82;;;5.32;;
15843;SDS011;50807;52.436;13.346;2023-03-11T00:30:28;5.53;;;5.13;;
15843;SDS011;50807;52.436;13.346;2023-03-11T00:30:58;5.07;;;4.67;;
15843;SDS011;50807;52.436;13.346;2023-03-11T00:31:30;5.47;;;5.05;;
15843;SDS011;50807;52.436;13.346;2023-03-11T00:32:01;4.85;;;4.50;;
15843;SDS011;50807;52.436;13.346;2023-03-11T00:32:32;5.73;;;5.33;;
15843;SDS011;50807;52.436;13.346;2023-03-11T00:33:03;4.97;;;4.57;;
15843;SDS011;50807;52.436;13.346;2023-03-11T00:33:36;5.47;;;5.07;;
15843;SDS011;50807;52.436;13.346;2023-03-11T00:34:07;5.20;;;4.80;;
15843;SDS011;50807;52.436;13.346;2023-03-11T00:34:38;6.10;;;5.60;;
15843;SDS011;50807;52.436;13.346;2023-03-11T00:35:10;5.50;;;5.10;;
15843;SDS011;50807;52.436;13.346;2023-03-11T00:35:44;5.45;;;5.05;;
15843;SDS011;50807;52.436;13.346;2023-03-11T00:36:18;4.83;;;4.43;;
15843;SDS011;50807;52.436;13.346;2023-03-11T00:36:53;4.80;;;4.40;;
15843;SDS011;50807;52.436;13.346;2023-03-11T00:37:24;5.22;;;4.82;;
15843;SDS011;50807;52.436;13.346;2023-03-11T00:37:56;4.70;;;4.30;;
15843;SDS011;50807;52.436;13.346;2023-03-11T00:38:29;5.30;;;4.90;;
15843;SDS011;50807;52.436;13.346;2023-03-11T00:39:02;5.43;;;5.03;;
15843;SDS011;50807;52.436;13.346;2023-03-11T00:39:35;5.30;;;4.90;;
15843;SDS011;50807;52.436;13.346;2023-03-11T00:40:06;5.37;;;4.97;;
15843;SDS011;50807;52.436;13.346;2023-03-11T00:40:41;5.05;;;4.65;;
15843;SDS011;50807;52.436;13.346;2023-03-11T00:41:15;5.47;;;5.07;;
15843;SDS011;50807;52.436;13.346;2023-03-11T00:41:46;5.13;;;4.72;;
15843;SDS011;50807;52.436;13.346;2023-03-11T00:42:17;5.43;;;5.03;;
15843;SDS011;50807;52.436;13.346;2023-03-11T00:42:48;5.53;;;5.10;;
15843;SDS011;50807;52.436;13.346;2023-03-11T00:43:19;5.50;;;5.10;;
15843;SDS011;50807;52.436;13.346;2023-03-11T00:43:50;5.30;;;4.80;;
15843;SDS011;50807;52.436;13.346;2023-03-11T00:44:22;5.35;;;4.95;;
15843;SDS011;50807;52.436;13.346;2023-03-11T00:44:53;5.43;;;5.03;;
15843;SDS011;50807;52.436;13.346;2023-03-11T00:45:24;5.00;;;4.60;;
15843;SDS011;50807;52.436;13.346;2023-03-11T00:45:56;4.90;;;4.57;;
15843;SDS011;50807;52.436;13.346;2023-03-11T00:46:27;5.00;;;4.60;;
15843;SDS011;50807;52.436;13.346;2023-03-11T00:46:59;5.20;;;4.80;;
15843;SDS011;50807;52.436;13.346;2023-03-11T00:47:31;5.47;;;5.07;;
15843;SDS011;50807;52.436;13.346;2023-03-11T00:48:02;5.37;;;4.97;;
15843;SDS011;50807;52.436;13.346;2023-03-11T00:48:35;5.25;;;4.85;;
15843;SDS011;50807;52.436;13.346;2023-03-11T00:49:07;5.60;;;5.20;;
15843;SDS011;50807;52.436;13.346;2023-03-11T00:49:38;5.07;;;4.67;;
15843;SDS011;50807;52.436;13.346;2023-03-11T00:50:09;5.33;;;4.93;;
15843;SDS011;50807;52.436;13.346;2023-03-11T00:50:47;5.32;;;4.93;;
15843;SDS011;50807;52.436;13.346;2023-03-11T00:51:19;5.65;;;5.25;;
15843;SDS011;50807;52.436;13.346;2023-03-11T00:51:50;5.13;;;4.73;;
15843;SDS011;50807;52.436;13.346;2023-03-11T00:52:20;5.47;;;5.07;;
15843;SDS011;50807;52.436;13.346;2023-03-11T00:52:51;5.53;;;5.13;;
15843;SDS011;50807;52.436;13.346;2023-03-11T00:53:23;5.57;;;5.18;;
15843;SDS011;50807;52.436;13.346;2023-03-11T00:53:54;5.40;;;5.00;;
15843;SDS011;50807;52.436;13.346;2023-03-11T00:54:25;5.60;;;5.20;;
15843;SDS011;50807;52.436;13.346;2023-03-11T00:54:57;6.07;;;5.57;;
15843;SDS011;50807;52.436;13.346;2023-03-11T00:55:29;5.68;;;5.28;;
15843;SDS011;50807;52.436;13.346;2023-03-11T00:56:06;5.68;;;5.28;;
15843;SDS011;50807;52.436;13.346;2023-03-11T00:56:38;5.53;;;5.13;;
15843;SDS011;50807;52.436;13.346;2023-03-11T00:57:10;5.97;;;5.55;;
15843;SDS011;50807;52.436;13.346;2023-03-11T00:57:41;5.87;;;5.47;;
15843;SDS011;50807;52.436;13.346;2023-03-11T00:58:13;5.30;;;4.90;;
15843;SDS011;50807;52.436;13.346;2023-03-11T00:58:44;6.13;;;5.63;;
15843;SDS011;50807;52.436;13.346;2023-03-11T00:59:16;5.90;;;5.50;;
15843;SDS011;50807;52.436;13.346;2023-03-11T00:59:46;5.90;;;5.50;;
15843;SDS011;50807;52.436;13.346;2023-03-11T01:00:18;6.23;;;5.73;;
15843;SDS011;50807;52.436;13.346;2023-03-11T01:00:52;5.75;;;5.30;;
15843;SDS011;50807;52.436;13.346;2023-03-11T01:01:23;6.80;;;6.10;;
15843;SDS011;50807;52.436;13.346;2023-03-11T01:01:54;6.33;;;5.83;;
15843;SDS011;50807;52.436;13.346;2023-03-11T01:02:24;6.60;;;6.10;;
15843;SDS011;50807;52.436;13.346;2023-03-11T01:02:56;6.03;;;5.53;;
15843;SDS011;50807;52.436;13.346;2023-03-11T01:03:29;6.68;;;6.18;;
15843;SDS011;50807;52.436;13.346;2023-03-11T01:04:01;6.53;;;6.03;;
15843;SDS011;50807;52.436;13.346;2023-03-11T01:04:33;6.40;;;5.95;;
15843;SDS011;50807;52.436;13.346;2023-03-11T01:05:04;5.77;;;5.37;;
15843;SDS011;50807;52.436;13.346;2023-03-11T01:05:36;6.10;;;5.60;;
15843;SDS011;50807;52.436;13.346;2023-03-11T01:06:08;6.97;;;6.45;;
15843;SDS011;50807;52.436;13.346;2023-03-11T01:06:39;5.97;;;5.57;;
15843;SDS011;50807;52.436;13.346;2023-03-11T01:07:09;6.63;;;6.13;;
15843;SDS011;50807;52.436;13.346;2023-03-11T01:07:41;6.07;;;5.65;;
15843;SDS011;50807;52.436;13.346;2023-03-11T01:08:12;6.60;;;6.10;;
15843;SDS011;50807;52.436;13.346;2023-03-11T01:08:43;6.13;;;5.73;;
15843;SDS011;50807;52.436;13.346;2023-03-11T01:09:14;6.18;;;5.68;;
15843;SDS011;50807;52.436;13.346;2023-03-11T01:09:45;6.50;;;6.00;;
15843;SDS011;50807;52.436;13.346;2023-03-11T01:10:16;6.07;;;5.57;;
15843;SDS011;50807;52.436;13.346;2023-03-11T01:10:48;6.75;;;6.25;;
15843;SDS011;50807;52.436;13.346;2023-03-11T01:11:19;6.50;;;6.00;;
15843;SDS011;50807;52.436;13.346;2023-03-11T01:11:50;6.50;;;6.00;;
15843;SDS011;50807;52.436;13.346;2023-03-11T01:12:23;7.05;;;6.45;;
15843;SDS011;50807;52.436;13.346;2023-03-11T01:12:54;6.47;;;6.00;;
15843;SDS011;50807;52.436;13.346;2023-03-11T01:13:26;6.78;;;6.28;;
15843;SDS011;50807;52.436;13.346;2023-03-11T01:13:59;6.50;;;6.00;;
15843;SDS011;50807;52.436;13.346;2023-03-11T01:14:30;6.97;;;6.47;;
15843;SDS011;50807;52.436;13.346;2023-03-11T01:15:02;6.27;;;5.87;;
15843;SDS011;50807;52.436;13.346;2023-03-11T01:15:36;6.88;;;6.38;;
15843;SDS011;50807;52.436;13.346;2023-03-11T01:16:07;6.40;;;5.93;;
15843;SDS011;50807;52.436;13.346;2023-03-11T01:16:39;7.00;;;6.50;;
15843;SDS011;50807;52.436;13.346;2023-03-11T01:17:10;6.70;;;6.20;;
15843;SDS011;50807;52.436;13.346;2023-03-11T01:17:41;7.07;;;6.57;;
15843;SDS011;50807;52.436;13.346;2023-03-11T01:18:12;7.10;;;6.60;;
15843;SDS011;50807;52.436;13.346;2023-03-11T01:18:44;7.32;;;6.75;;
15843;SDS011;50807;52.436;13.346;2023-03-11T01:19:18;6.32;;;5.90;;
15843;SDS011;50807;52.436;13.346;2023-03-11T01:19:48;6.05;;;5.65;;
15843;SDS011;50807;52.436;13.346;2023-03-11T01:20:19;6.77;;;6.27;;
15843;SDS011;50807;52.436;13.346;2023-03-11T01:20:51;7.00;;;6.50;;
15843;SDS011;50807;52.436;13.346;2023-03-11T01:21:23;6.85;;;6.35;;
15843;SDS011;50807;52.436;13.346;2023-03-11T01:21:54;7.17;;;6.67;;
15843;SDS011;50807;52.436;13.346;2023-03-11T01:22:24;7.13;;;6.60;;
15843;SDS011;50807;52.436;13.346;2023-03-11T01:22:56;7.30;;;6.80;;
15843;SDS011;50807;52.436;13.346;2023-03-11T01:23:27;6.93;;;6.43;;
15843;SDS011;50807;52.436;13.346;2023-03-11T01:23:57;6.47;;;5.97;;
15843;SDS011;50807;52.436;13.346;2023-03-11T01:24:29;6.70;;;6.10;;
15843;SDS011;50807;52.436;13.346;2023-03-11T01:25:00;6.40;;;5.90;;
15843;SDS011;50807;52.436;13.346;2023-03-11T01:25:31;6.70;;;6.20;;
15843;SDS011;50807;52.436;13.346;2023-03-11T01:26:03;7.18;;;6.57;;
15843;SDS011;50807;52.436;13.346;2023-03-11T01:26:33;7.03;;;6.43;;
15843;SDS011;50807;52.436;13.346;2023-03-11T01:27:04;6.73;;;6.23;;
15843;SDS011;50807;52.436;13.346;2023-03-11T01:27:35;6.67;;;6.17;;
15843;SDS011;50807;52.436;13.346;2023-03-11T01:28:07;6.35;;;5.88;;
15843;SDS011;50807;52.436;13.346;2023-03-11T01:28:38;6.90;;;6.40;;
15843;SDS011;50807;52.436;13.346;2023-03-11T01:29:09;6.87;;;6.37;;
15843;SDS011;50807;52.436;13.346;2023-03-11T01:29:40;5.65;;;5.25;;
15843;SDS011;50807;52.436;13.346;2023-03-11T01:30:12;6.30;;;5.80;;
15843;SDS011;50807;52.436;13.346;2023-03-11T01:30:47;7.22;;;6.70;;
15843;SDS011;50807;52.436;13.346;2023-03-11T01:31:19;7.35;;;6.82;;
15843;SDS011;50807;52.436;13.346;2023-03-11T01:31:49;6.60;;;6.10;;
15843;SDS011;50807;52.436;13.346;2023-03-11T01:32:20;6.77;;;6.27;;
15843;SDS011;50807;52.436;13.346;2023-03-11T01:32:55;7.00;;;6.50;;
15843;SDS011;50807;52.436;13.346;2023-03-11T01:33:27;6.50;;;6.10;;
15843;SDS011;50807;52.436;13.346;2023-03-11T01:33:58;6.50;;;6.00;;
15843;SDS011;50807;52.436;13.346;2023-03-11T01:34:31;6.53;;;6.03;;
15843;SDS011;50807;52.436;13.346;2023-03-11T01:35:05;6.32;;;5.93;;
15843;SDS011;50807;52.436;13.346;2023-03-11T01:35:37;5.80;;;5.40;;
15843;SDS011;50807;52.436;13.346;2023-03-11T01:36:08;5.88;;;5.38;;
15843;SDS011;50807;52.436;13.346;2023-03-11T01:36:39;5.83;;;5.43;;
15843;SDS011;50807;52.436;13.346;2023-03-11T01:37:11;5.72;;;5.32;;
15843;SDS011;50807;52.436;13.346;2023-03-11T01:37:42;5.63;;;5.23;;
15843;SDS011;50807;52.436;13.346;2023-03-11T01:38:12;5.93;;;5.50;;
15843;SDS011;50807;52.436;13.346;2023-03-11T01:38:46;5.57;;;5.18;;
15843;SDS011;50807;52.436;13.346;2023-03-11T01:39:16;5.30;;;4.90;;
15843;SDS011;50807;52.436;13.346;2023-03-11T01:39:47;6.00;;;5.60;;
15843;SDS011;50807;52.436;13.346;2023-03-11T01:40:19;5.43;;;5.03;;
15843;SDS011;50807;52.436;13.346;2023-03-11T01:40:56;5.50;;;5.10;;
15843;SDS011;50807;52.436;13.346;2023-03-11T01:41:26;5.60;;;5.20;;
15843;SDS011;50807;52.436;13.346;2023-03-11T01:41:57;6.03;;;5.63;;
15843;SDS011;50807;52.436;13.346;2023-03-11T01:42:29;5.18;;;4.78;;
15843;SDS011;50807;52.436;13.346;2023-03-11T01:43:00;5.20;;;4.90;;
15843;SDS011;50807;52.436;13.346;2023-03-11T01:43:38;5.05;;;4.65;;
15843;SDS011;50807;52.436;13.346;2023-03-11T01:44:19;5.43;;;5.03;;
15843;SDS011;50807;52.436;13.346;2023-03-11T01:44:50;4.60;;;4.30;;
15843;SDS011;50807;52.436;13.346;2023-03-11T01:45:32;4.67;;;4.37;;
15843;SDS011;50807;52.436;13.346;2023-03-11T01:46:12;4.50;;;4.20;;
15843;SDS011;50807;52.436;13.346;2023-03-11T01:48:06;4.85;;;4.53;;
15843;SDS011;50807;52.436;13.346;2023-03-11T01:48:38;4.45;;;4.15;;
15843;SDS011;50807;52.436;13.346;2023-03-11T01:49:11;4.55;;;4.25;;
15843;SDS011;50807;52.436;13.346;2023-03-11T01:49:44;4.57;;;4.28;;
15843;SDS011;50807;52.436;13.346;2023-03-11T01:50:15;4.35;;;4.05;;
15843;SDS011;50807;52.436;13.346;2023-03-11T01:50:48;4.10;;;3.80;;
15843;SDS011;50807;52.436;13.346;2023-03-11T01:51:23;4.10;;;3.80;;
15843;SDS011;50807;52.436;13.346;2023-03-11T01:51:59;4.00;;;3.70;;
15843;SDS011;50807;52.436;13.346;2023-03-11T01:52:36;4.72;;;4.32;;
15843;SDS011;50807;52.436;13.346;2023-03-11T01:53:10;4.32;;;4.03;;
15843;SDS011;50807;52.436;13.346;2023-03-11T01:53:42;3.75;;;3.45;;
15843;SDS011;50807;52.436;13.346;2023-03-11T01:54:15;3.70;;;3.50;;
15843;SDS011;50807;52.436;13.346;2023-03-11T01:54:52;3.60;;;3.30;;
15843;SDS011;50807;52.436;13.346;2023-03-11T01:55:23;3.67;;;3.43;;
15843;SDS011;50807;52.436;13.346;2023-03-11T01:55:54;3.93;;;3.63;;
15843;SDS011;50807;52.436;13.346;2023-03-11T01:56:25;3.17;;;2.97;;
15843;SDS011;50807;52.436;13.346;2023-03-11T01:56:58;3.47;;;3.25;;
15843;SDS011;50807;52.436;13.346;2023-03-11T01:57:31;3.55;;;3.25;;
15843;SDS011;50807;52.436;13.346;2023-03-11T01:58:03;2.70;;;2.50;;
15843;SDS011;50807;52.436;13.346;2023-03-11T01:58:40;3.15;;;2.95;;
15843;SDS011;50807;52.436;13.346;2023-03-11T01:59:20;2.95;;;2.75;;
15843;SDS011;50807;52.436;13.346;2023-03-11T01:59:55;2.70;;;2.50;;
15843;SDS011;50807;52.436;13.346;2023-03-11T02:00:29;2.70;;;2.50;;
15843;SDS011;50807;52.436;13.346;2023-03-11T02:01:01;2.40;;;2.30;;
15843;SDS011;50807;52.436;13.346;2023-03-11T02:01:33;3.00;;;2.80;;
15843;SDS011;50807;52.436;13.346;2023-03-11T02:02:08;2.75;;;2.55;;
15843;SDS011;50807;52.436;13.346;2023-03-11T02:02:48;2.35;;;2.15;;
15843;SDS011;50807;52.436;13.346;2023-03-11T02:03:25;2.20;;;2.10;;
15843;SDS011;50807;52.436;13.346;2023-03-11T02:03:58;1.98;;;1.88;;
15843;SDS011;50807;52.436;13.346;2023-03-11T02:04:34;1.75;;;1.65;;
15843;SDS011;50807;52.436;13.346;2023-03-11T02:05:07;1.88;;;1.77;;
15843;SDS011;50807;52.436;13.346;2023-03-11T02:05:39;1.90;;;1.80;;
15843;SDS011;50807;52.436;13.346;2023-03-11T02:06:13;2.17;;;2.08;;
15843;SDS011;50807;52.436;13.346;2023-03-11T02:06:47;1.67;;;1.58;;
15843;SDS011;50807;52.436;13.346;2023-03-11T02:07:19;1.95;;;1.85;;
15843;SDS011;50807;52.436;13.346;2023-03-11T02:07:51;1.75;;;1.65;;
15843;SDS011;50807;52.436;13.346;2023-03-11T02:08:24;1.65;;;1.55;;
15843;SDS011;50807;52.436;13.346;2023-03-11T02:08:56;1.77;;;1.67;;
15843;SDS011;50807;52.436;13.346;2023-03-11T02:09:30;1.50;;;1.40;;
15843;SDS011;50807;52.436;13.346;2023-03-11T02:10:01;1.48;;;1.38;;
15843;SDS011;50807;52.436;13.346;2023-03-11T02:10:33;1.45;;;1.35;;
15843;SDS011;50807;52.436;13.346;2023-03-11T02:11:08;1.50;;;1.40;;
15843;SDS011;50807;52.436;13.346;2023-03-11T02:11:44;1.40;;;1.30;;
15843;SDS011;50807;52.436;13.346;2023-03-11T02:12:16;1.70;;;1.60;;
15843;SDS011;50807;52.436;13.346;2023-03-11T02:12:47;1.30;;;1.20;;
15843;SDS011;50807;52.436;13.346;2023-03-11T02:13:20;1.45;;;1.35;;
15843;SDS011;50807;52.436;13.346;2023-03-11T02:13:53;1.17;;;1.17;;
15843;SDS011;50807;52.436;13.346;2023-03-11T02:14:28;1.30;;;1.20;;
15843;SDS011;50807;52.436;13.346;2023-03-11T02:15:01;0.98;;;0.98;;
15843;SDS011;50807;52.436;13.346;2023-03-11T02:15:35;1.25;;;1.15;;
15843;SDS011;50807;52.436;13.346;2023-03-11T02:16:06;1.00;;;0.95;;
15843;SDS011;50807;52.436;13.346;2023-03-11T02:16:37;1.27;;;1.13;;
15843;SDS011;50807;52.436;13.346;2023-03-11T02:17:09;0.80;;;0.80;;
15843;SDS011;50807;52.436;13.346;2023-03-11T02:17:41;0.80;;;0.80;;
15843;SDS011;50807;52.436;13.346;2023-03-11T02:18:13;0.88;;;0.88;;
15843;SDS011;50807;52.436;13.346;2023-03-11T02:18:47;0.85;;;0.85;;
15843;SDS011;50807;52.436;13.346;2023-03-11T02:19:22;0.95;;;0.95;;
15843;SDS011;50807;52.436;13.346;2023-03-11T02:20:10;1.00;;;0.98;;
15843;SDS011;50807;52.436;13.346;2023-03-11T02:20:52;0.73;;;0.73;;
15843;SDS011;50807;52.436;13.346;2023-03-11T02:21:33;0.80;;;0.80;;
15843;SDS011;50807;52.436;13.346;2023-03-11T02:22:04;0.90;;;0.90;;
15843;SDS011;50807;52.436;13.346;2023-03-11T02:22:38;1.20;;;1.10;;
15843;SDS011;50807;52.436;13.346;2023-03-11T02:23:12;0.80;;;0.77;;
15843;SDS011;50807;52.436;13.346;2023-03-11T02:23:46;0.80;;;0.80;;
15843;SDS011;50807;52.436;13.346;2023-03-11T02:24:28;0.75;;;0.75;;
15843;SDS011;50807;52.436;13.346;2023-03-11T02:25:11;0.80;;;0.80;;
15843;SDS011;50807;52.436;13.346;2023-03-11T02:25:57;0.80;;;0.80;;
15843;SDS011;50807;52.436;13.346;2023-03-11T02:26:38;0.63;;;0.63;;
15843;SDS011;50807;52.436;13.346;2023-03-11T02:27:22;0.60;;;0.60;;
15843;SDS011;50807;52.436;13.346;2023-03-11T02:27:55;0.80;;;0.80;;
15843;SDS011;50807;52.436;13.346;2023-03-11T02:28:30;0.60;;;0.60;;
15843;SDS011;50807;52.436;13.346;2023-03-11T02:29:04;0.70;;;0.70;;
15843;SDS011;50807;52.436;13.346;2023-03-11T02:29:38;0.63;;;0.63;;
15843;SDS011;50807;52.436;13.346;2023-03-11T02:30:12;0.75;;;0.75;;
15843;SDS011;50807;52.436;13.346;2023-03-11T02:30:45;0.70;;;0.68;;
15843;SDS011;50807;52.436;13.346;2023-03-11T02:31:17;0.68;;;0.68;;
15843;SDS011;50807;52.436;13.346;2023-03-11T02:31:50;0.80;;;0.80;;
15843;SDS011;50807;52.436;13.346;2023-03-11T02:32:21;0.80;;;0.80;;
15843;SDS011;50807;52.436;13.346;2023-03-11T02:32:53;0.60;;;0.60;;
15843;SDS011;50807;52.436;13.346;2023-03-11T02:33:28;0.52;;;0.52;;
15843;SDS011;50807;52.436;13.346;2023-03-11T02:34:03;0.70;;;0.70;;
15843;SDS011;50807;52.436;13.346;2023-03-11T02:34:41;0.60;;;0.60;;
15843;SDS011;50807;52.436;13.346;2023-03-11T02:35:12;0.60;;;0.60;;
15843;SDS011;50807;52.436;13.346;2023-03-11T02:35:43;0.85;;;0.85;;
15843;SDS011;50807;52.436;13.346;2023-03-11T02:37:07;0.60;;;0.60;;
15843;SDS011;50807;52.436;13.346;2023-03-11T02:37:44;0.60;;;0.60;;
15843;SDS011;50807;52.436;13.346;2023-03-11T02:38:17;0.60;;;0.60;;
15843;SDS011;50807;52.436;13.346;2023-03-11T02:38:48;0.70;;;0.70;;
15843;SDS011;50807;52.436;13.346;2023-03-11T02:39:27;0.80;;;0.80;;
15843;SDS011;50807;52.436;13.346;2023-03-11T02:41:06;0.60;;;0.60;;
15843;SDS011;50807;52.436;13.346;2023-03-11T02:41:38;0.57;;;0.57;;
15843;SDS011;50807;52.436;13.346;2023-03-11T02:42:18;0.68;;;0.68;;
15843;SDS011;50807;52.436;13.346;2023-03-11T02:42:56;0.82;;;0.82;;
15843;SDS011;50807;52.436;13.346;2023-03-11T02:43:32;0.63;;;0.63;;
15843;SDS011;50807;52.436;13.346;2023-03-11T02:44:10;0.70;;;0.70;;
15843;SDS011;50807;52.436;13.346;2023-03-11T02:44:45;0.63;;;0.63;;
15843;SDS011;50807;52.436;13.346;2023-03-11T02:45:29;0.70;;;0.70;;
15843;SDS011;50807;52.436;13.346;2023-03-11T02:46:01;0.68;;;0.68;;
15843;SDS011;50807;52.436;13.346;2023-03-11T02:46:36;0.70;;;0.70;;
15843;SDS011;50807;52.436;13.346;2023-03-11T02:47:10;0.68;;;0.68;;
15843;SDS011;50807;52.436;13.346;2023-03-11T02:47:41;0.77;;;0.77;;
15843;SDS011;50807;52.436;13.346;2023-03-11T02:48:13;0.75;;;0.75;;
15843;SDS011;50807;52.436;13.346;2023-03-11T02:48:45;2.20;;;0.70;;
15843;SDS011;50807;52.436;13.346;2023-03-11T02:49:18;0.70;;;0.70;;
15843;SDS011;50807;52.436;13.346;2023-03-11T02:49:52;0.68;;;0.68;;
15843;SDS011;50807;52.436;13.346;2023-03-11T02:50:25;0.57;;;0.57;;
15843;SDS011;50807;52.436;13.346;2023-03-11T02:50:59;0.70;;;0.70;;
15843;SDS011;50807;52.436;13.346;2023-03-11T02:51:32;0.75;;;0.75;;
15843;SDS011;50807;52.436;13.346;2023-03-11T02:52:03;0.98;;;0.70;;
15843;SDS011;50807;52.436;13.346;2023-03-11T02:52:35;0.70;;;0.70;;
15843;SDS011;50807;52.436;13.346;2023-03-11T02:53:07;0.73;;;0.73;;
15843;SDS011;50807;52.436;13.346;2023-03-11T02:53:44;0.60;;;0.60;;
15843;SDS011;50807;52.436;13.346;2023-03-11T02:54:20;0.63;;;0.63;;
15843;SDS011;50807;52.436;13.346;2023-03-11T02:54:51;0.70;;;0.67;;
15843;SDS011;50807;52.436;13.346;2023-03-11T02:55:22;0.73;;;0.73;;
15843;SDS011;50807;52.436;13.346;2023-03-11T02:55:52;0.60;;;0.60;;
15843;SDS011;50807;52.436;13.346;2023-03-11T02:56:24;0.90;;;0.90;;
15843;SDS011;50807;52.436;13.346;2023-03-11T02:56:55;0.80;;;0.80;;
15843;SDS011;50807;52.436;13.346;2023-03-11T02:57:28;0.60;;;0.60;;
15843;SDS011;50807;52.436;13.346;2023-03-11T02:57:58;0.80;;;0.80;;
15843;SDS011;50807;52.436;13.346;2023-03-11T02:58:30;1.00;;;1.00;;
15843;SDS011;50807;52.436;13.346;2023-03-11T02:59:01;0.90;;;0.90;;
15843;SDS011;50807;52.436;13.346;2023-03-11T02:59:32;0.80;;;0.80;;
15843;SDS011;50807;52.436;13.346;2023-03-11T03:00:05;0.90;;;0.90;;
15843;SDS011;50807;52.436;13.346;2023-03-11T03:00:43;0.93;;;0.93;;
15843;SDS011;50807;52.436;13.346;2023-03-11T03:01:14;0.90;;;0.90;;
15843;SDS011;50807;52.436;13.346;2023-03-11T03:01:46;0.98;;;0.98;;
15843;SDS011;50807;52.436;13.346;2023-03-11T03:02:17;0.90;;;0.90;;
15843;SDS011;50807;52.436;13.346;2023-03-11T03:02:48;0.80;;;0.80;;
15843;SDS011;50807;52.436;13.346;2023-03-11T03:03:20;1.00;;;1.00;;
15843;SDS011;50807;52.436;13.346;2023-03-11T03:03:52;0.93;;;0.93;;
15843;SDS011;50807;52.436;13.346;2023-03-11T03:04:23;0.80;;;0.80;;
15843;SDS011;50807;52.436;13.346;2023-03-11T03:04:54;0.80;;;0.80;;
15843;SDS011;50807;52.436;13.346;2023-03-11T03:05:26;0.80;;;0.80;;
15843;SDS011;50807;52.436;13.346;2023-03-11T03:05:57;0.80;;;0.80;;
15843;SDS011;50807;52.436;13.346;2023-03-11T03:06:28;0.90;;;0.90;;
15843;SDS011;50807;52.436;13.346;2023-03-11T03:07:00;1.00;;;1.00;;
15843;SDS011;50807;52.436;13.346;2023-03-11T03:07:31;1.00;;;1.00;;
15843;SDS011;50807;52.436;13.346;2023-03-11T03:08:02;1.00;;;1.00;;
15843;SDS011;50807;52.436;13.346;2023-03-11T03:08:35;0.98;;;0.98;;
15843;SDS011;50807;52.436;13.346;2023-03-11T03:09:06;1.00;;;0.90;;
15843;SDS011;50807;52.436;13.346;2023-03-11T03:09:37;0.90;;;0.90;;
15843;SDS011;50807;52.436;13.346;2023-03-11T03:10:09;0.98;;;0.98;;
15843;SDS011;50807;52.436;13.346;2023-03-11T03:10:41;0.90;;;0.90;;
15843;SDS011;50807;52.436;13.346;2023-03-11T03:11:12;1.00;;;1.00;;
15843;SDS011;50807;52.436;13.346;2023-03-11T03:11:44;1.10;;;1.00;;
15843;SDS011;50807;52.436;13.346;2023-03-11T03:12:15;0.97;;;0.90;;
15843;SDS011;50807;52.436;13.346;2023-03-11T03:12:47;1.00;;;1.00;;
15843;SDS011;50807;52.436;13.346;2023-03-11T03:13:18;1.10;;;1.10;;
15843;SDS011;50807;52.436;13.346;2023-03-11T03:13:50;1.30;;;1.20;;
15843;SDS011;50807;52.436;13.346;2023-03-11T03:14:21;1.00;;;1.00;;
15843;SDS011;50807;52.436;13.346;2023-03-11T03:14:52;1.00;;;1.00;;
15843;SDS011;50807;52.436;13.346;2023-03-11T03:15:23;0.93;;;0.93;;
15843;SDS011;50807;52.436;13.346;2023-03-11T03:15:54;1.17;;;1.07;;
15843;SDS011;50807;52.436;13.346;2023-03-11T03:16:25;1.23;;;1.13;;
15843;SDS011;50807;52.436;13.346;2023-03-11T03:16:57;1.20;;;1.10;;
15843;SDS011;50807;52.436;13.346;2023-03-11T03:17:28;1.05;;;1.05;;